Flight Track Log - Related Links

Times and Time Zones

All times are in EDT time to prevent confusion due to time zone crossing. See the UAL4257 flight status page for this flight to view local times or setup timezone preferences in your user account.

Time Position Orientation Groundspeed Altitude Reporting Facility
EDT Latitude Longitude Course Direction KTS MPH feet Rate Location/Type
Mon 12:13:34 PM 25.8142 -99.8186 44° Northeast 294 338 10,600  Level Houston Center
Mon 12:14:36 PM 25.8903 -99.7572 36° Northeast 318 366 11,600 1,113 Climbing Houston Center
Mon 12:15:00 PM 26.3475 -99.4934 44° Northeast  Level Estimated
Mon 12:15:38 PM 25.9867 -99.6750 37° Northeast 346 398 12,900  Level Houston Center
Mon 12:16:00 PM 26.4208 -99.4137 44° Northeast  Level Estimated
Mon 12:16:41 PM 26.0683 -99.6031 38° Northeast 362 417 14,100  Level Houston Center
Mon 12:17:00 PM 26.4942 -99.3338 44° Northeast  Level Estimated
Mon 12:17:43 PM 26.1522 -99.5322 37° Northeast 371 427 15,200  Level Houston Center
Mon 12:18:00 PM 26.5675 -99.2538 44° Northeast  Level Estimated
Mon 12:18:45 PM 26.2372 -99.4597 37° Northeast 378 435 16,300  Level Houston Center
Mon 12:19:47 PM 26.3253 -99.3875 36° Northeast 386 444 17,300 968 Climbing Houston Center
Mon 12:20:49 PM 26.4144 -99.3114 37° Northeast 394 453 18,300 1,306 Climbing Houston Center
Mon 12:21:51 PM 26.5139 -99.2094 43° Northeast 399 459 20,000 1,597 Climbing Houston Center
Mon 12:22:53 PM 26.5958 -99.1228 43° Northeast 403 464 21,600 1,500 Climbing Houston Center
Mon 12:23:55 PM 26.6808 -99.0406 41° Northeast 406 467 23,100 1,355 Climbing Houston Center
Mon 12:24:57 PM 26.7672 -98.9569 41° Northeast 410 472 24,400 1,152 Climbing Houston Center
Mon 12:26:00 PM 26.8561 -98.8722 40° Northeast 417 480 25,500 1,104 Climbing Houston Center
Mon 12:27:02 PM 26.9647 -98.7675 41° Northeast 429 494 26,700 1,065 Climbing Houston Center
Mon 12:28:04 PM 27.0556 -98.6767 42° Northeast 436 502 27,700 871 Climbing Houston Center
Mon 12:29:06 PM 27.1483 -98.5872 41° Northeast 442 509 28,500 629 Climbing Houston Center
Mon 12:30:08 PM 27.2414 -98.4950 41° Northeast 447 514 29,000 242 Climbing Houston Center
Mon 12:31:10 PM 27.3386 -98.3992 41° Northeast 461 531 29,000  Level Houston Center
Mon 12:32:12 PM 27.4592 -98.2789 42° Northeast 479 551 29,000  Level Houston Center
Mon 12:33:14 PM 27.5631 -98.1783 41° Northeast 491 565 29,000  Level Houston Center
Mon 12:34:17 PM 27.6636 -98.0783 41° Northeast 488 562 29,000  Level Houston Center
Mon 12:35:19 PM 27.7653 -97.9783 41° Northeast 487 560 29,000  Level Houston Center
Mon 12:36:21 PM 27.8764 -97.8975 33° Northeast 478 550 29,000  Level Houston Center
Mon 12:37:23 PM 28.0142 -97.8139 28° Northeast 471 542 29,000  Level Houston Center
Mon 12:38:25 PM 28.1269 -97.7458 28° Northeast 472 543 29,000  Level Houston Center
Mon 12:39:27 PM 28.2292 -97.6456 41° Northeast 485 558 29,000  Level Houston Center
Mon 12:40:29 PM 28.3258 -97.5361 45° Northeast 490 564 29,000  Level Houston Center
Mon 12:41:31 PM 28.4231 -97.4275 44° Northeast 490 564 29,000  Level Houston Center
Mon 12:42:33 PM 28.5403 -97.2992 44° Northeast 488 562 29,000  Level Houston Center
Mon 12:43:36 PM 28.6361 -97.1936 44° Northeast 482 555 29,000  Level Houston Center
Mon 12:44:38 PM 28.7297 -97.0886 45° Northeast 475 547 29,000 -242 Level Houston Center
Mon 12:45:40 PM 28.8228 -96.9842 45° Northeast 471 542 28,500 -1,210 Descending Houston Center
Mon 12:46:42 PM 28.9172 -96.8792 44° Northeast 475 547 26,500 -2,371 Descending Houston Center
Mon 12:47:44 PM 29.0294 -96.7519 45° Northeast 475 547 23,600 -2,661 Descending Houston Center
Mon 12:48:46 PM 29.1186 -96.6522 44° Northeast 459 528 21,000 -2,613 Descending Houston Center
Mon 12:49:48 PM 29.2042 -96.5553 45° Northeast 441 507 18,200 -2,565 Descending Houston Center
Mon 12:50:50 PM 29.2875 -96.4617 44° Northeast 426 490 15,700 -2,747 Descending Houston Center
Mon 12:51:11 PM 29.3256 -96.4186 45° Northeast 413 475 14,400 -3,194 Descending Houston Center
Mon 12:51:52 PM 29.3828 -96.3519 45° Northeast 409 471 12,400 -2,560 Descending Houston Center
Mon 12:52:26 PM 29.4253 -96.3047 44° Northeast 394 453 11,200 -1,810 Descending Houston Center
Mon 12:52:55 PM 29.4583 -96.2678 44° Northeast 388 447 10,500 -1,065 Descending Houston Center
Mon 12:53:28 PM 29.4958 -96.2225 46° Northeast 355 409 10,100 -484 Descending Houston Center
Mon 12:53:57 PM 29.5272 -96.1875 44° Northeast 360 414 10,000 -98 Descending Houston Center
Mon 12:54:29 PM 29.5617 -96.1336 54° Northeast 337 388 10,000  Level Houston Center
Mon 12:54:59 PM 29.5800 -96.0997 58° Northeast 339 390 10,000  Level Houston Center
Mon 12:55:30 PM 29.6100 -96.0369 61° Northeast 341 392 10,000 -97 Level Houston Center
Mon 12:56:01 PM 29.6253 -96.0072 59° Northeast 335 386 9,900 -677 Descending Houston Center
Mon 12:56:32 PM 29.6653 -95.9731 37° Northeast 263 303 9,300 -871 Descending Houston Center
Mon 12:57:03 PM 29.6878 -95.9594 28° Northeast 288 331 9,000 -1,082 Descending Houston Center
Mon 12:57:33 PM 29.7392 -95.9308 26° Northeast 277 319 8,200 -1,355 Descending Houston Center
Mon 12:58:05 PM 29.7722 -95.9139 24° Northeast 279 321 7,600 -1,082 Descending Houston Center
Mon 12:58:34 PM 29.8053 -95.8944 27° Northeast 245 282 7,100 -581 Descending Houston Center
Mon 12:59:07 PM 29.8333 -95.8786 26° Northeast 255 293 7,000 -97 Descending Houston Center
Mon 12:59:36 PM 29.8628 -95.8564 33° Northeast 239 275 7,000 -194 Level Houston Center
Mon 01:00:09 PM 29.8872 -95.8342 38° Northeast 242 278 6,800 -590 Descending Houston Center
Mon 01:00:37 PM 29.9128 -95.8050 45° Northeast 243 280 6,400 -677 Descending Houston Center
Mon 01:01:11 PM 29.9350 -95.7800 44° Northeast 240 276 6,100 -689 Descending Houston Center
Mon 01:01:38 PM 29.9578 -95.7442 54° Northeast 230 265 5,700 -667 Descending Houston Center
Mon 01:02:14 PM 29.9744 -95.7203 51° Northeast 235 270 5,400 -581 Descending Houston Center
Mon 01:02:40 PM 29.9900 -95.6803 66° East 235 270 5,100 -484 Descending Houston Center
Mon 01:03:16 PM 29.9933 -95.6506 83° East 233 268 4,900 -689 Descending Houston Center
Mon 01:03:41 PM 29.9919 -95.6078 92° East 224 258 4,400 -1,258 Descending Houston Center
Mon 01:04:18 PM 29.9928 -95.5622 89° East 231 266 3,600 -1,286 Descending Houston Center
Mon 01:04:37 PM 29.9922 -95.5400 92° East 230 265 3,200 -1,161 Descending Houston Center
Mon 01:05:20 PM 29.9925 -95.4906 90° East 229 264 2,400 -1,180 Descending Houston Center
Mon 01:05:38 PM 29.9922 -95.4703 91° East 217 250 2,000 -968 Descending Houston Center
Mon 01:06:22 PM 29.9947 -95.4308 86° East 200 230 1,400 -787 Descending Houston Center
Mon 01:06:39 PM 29.9933 -95.4144 96° East 137 158 1,200 -677 Descending Houston Center
Mon 01:07:24 PM 29.9942 -95.3861 88° East 159 183 700 -774 Descending Houston Center
Mon 01:07:41 PM 29.9936 -95.3711 92° East 134 154 400 -290 Descending Houston Center
Mon 01:08:26 PM 29.9947 -95.3356 88° East 150 173 400  Level Houston Center
Mon 01:10:00 PM 29.9833 -95.3333 North  Level FlightAware Approximate

Login

Don't have an account? Register now (free) for customized features, flight alerts, and more!